• Join FlightAware (Why Join?)
  • Login
  • US Flag 
04:56PM EDT


 

Airport Tracker/Info


-or-


 

Live Flight TrackerFlight Track Log ✈ UAL4401 ✈ 21-Apr-2013 ✈ KIAH - KIAD

Flight Track Log - Related Links

Times and Time Zones

All times are in EDT time to prevent confusion due to time zone crossing. See the UAL4401 flight status page for this flight to view local times or setup timezone preferences in your user account.

Time Position Orientation Groundspeed Altitude Reporting Facility
EDT Latitude Longitude Course Direction KTS MPH feet Rate Location/Type
10:05PM 29.9228 -94.9219 97° East  Level FlightAware Approximate
10:06PM 29.9098 -94.7836 95° East  Level FlightAware Approximate
10:07PM 29.8976 -94.6452 97° East  Level FlightAware Approximate
10:08PM 29.8824 -94.5072 97° East  Level FlightAware Approximate
10:09PM 29.8670 -94.3692 97° East  Level FlightAware Approximate
10:10PM 29.8500 -94.2354 90° East  Level FlightAware Approximate
10:11PM 29.8500 -94.0963 90° East  Level FlightAware Approximate
10:12PM 29.8607 -93.9583 81° East  Level FlightAware Approximate
10:13PM 29.8725 -93.8202 82° East  Level FlightAware Approximate
10:14PM 29.8833 -93.6820 90° East  Level FlightAware Approximate
10:15PM 29.8959 -93.5439 82° East  Level FlightAware Approximate
10:16PM 29.9121 -93.4061 82° East  Level FlightAware Approximate
10:17PM 29.9195 -93.2676 78° East  Level FlightAware Approximate
10:18PM 29.9443 -93.1314 78° East  Level FlightAware Approximate
10:19PM 29.9589 -92.9934 84° East  Level FlightAware Approximate
10:20PM 29.9667 -92.8546 90° East  Level FlightAware Approximate
10:21PM 29.9739 -92.7161 81° East  Level FlightAware Approximate
10:22PM 29.9875 -92.5780 85° East  Level FlightAware Approximate
10:23PM 29.9979 -92.4392 85° East  Level FlightAware Approximate
10:24PM 30.0081 -92.3005 85° East  Level FlightAware Approximate
10:25PM 30.0182 -92.1617 85° East  Level FlightAware Approximate
10:26PM 30.0282 -92.0229 85° East  Level FlightAware Approximate
10:27PM 30.0380 -91.8840 85° East  Level FlightAware Approximate
10:28PM 30.0476 -91.7452 85° East  Level FlightAware Approximate
10:29PM 30.0571 -91.6063 85° East  Level FlightAware Approximate
10:30PM 30.0665 -91.4673 86° East  Level FlightAware Approximate
10:31PM 30.0757 -91.3284 86° East  Level FlightAware Approximate
10:32PM 30.0847 -91.1894 86° East  Level FlightAware Approximate
10:33PM 30.0937 -91.0504 86° East  Level FlightAware Approximate
10:34PM 30.1093 -90.9128 74° East  Level FlightAware Approximate
10:35PM 30.1429 -90.7789 74° East  Level FlightAware Approximate
10:36PM 30.1763 -90.6449 74° East  Level FlightAware Approximate
10:37PM 30.2098 -90.5108 74° East  Level FlightAware Approximate
10:38PM 30.2432 -90.3767 74° East  Level FlightAware Approximate
10:39PM 30.2764 -90.2425 74° East  Level FlightAware Approximate
10:40PM 30.3095 -90.1082 74° East  Level FlightAware Approximate
10:41PM 30.3425 -89.9738 74° East  Level FlightAware Approximate
10:42PM 30.3753 -89.8393 74° East  Level FlightAware Approximate
10:43PM 30.4080 -89.7047 74° East  Level FlightAware Approximate
10:44PM 30.4403 -89.5700 75° East  Level FlightAware Approximate
10:45PM 30.4715 -89.4348 75° East  Level FlightAware Approximate
10:46PM 30.5027 -89.2996 75° East  Level FlightAware Approximate
10:47PM 30.5336 -89.1643 75° East  Level FlightAware Approximate
10:48PM 30.5645 -89.0289 75° East  Level FlightAware Approximate
10:49PM 30.5951 -88.8935 75° East  Level FlightAware Approximate
10:50PM 30.6257 -88.7579 75° East  Level FlightAware Approximate
10:51PM 30.6561 -88.6223 75° East  Level FlightAware Approximate
10:52PM 30.6864 -88.4865 75° East  Level FlightAware Approximate
10:53PM 30.7165 -88.3507 75° East  Level FlightAware Approximate
10:54PM 30.7959 -88.2452 49° Northeast  Level FlightAware Approximate
10:55PM 30.8755 -88.1397 49° Northeast  Level FlightAware Approximate
10:56PM 30.9550 -88.0340 49° Northeast  Level FlightAware Approximate
10:57PM 31.0344 -87.9281 49° Northeast  Level FlightAware Approximate
10:58PM 31.1137 -87.8220 49° Northeast  Level FlightAware Approximate
10:59PM 31.1929 -87.7158 49° Northeast  Level FlightAware Approximate
11:00PM 31.2718 -87.6090 52° Northeast  Level FlightAware Approximate
11:01PM 31.3468 -87.4986 49° Northeast  Level FlightAware Approximate
11:02PM 31.4262 -87.3923 49° Northeast  Level FlightAware Approximate
11:03PM 31.5055 -87.2857 49° Northeast  Level FlightAware Approximate
11:04PM 31.5847 -87.1790 49° Northeast  Level FlightAware Approximate
11:05PM 31.6639 -87.0721 49° Northeast  Level FlightAware Approximate
11:06PM 31.7429 -86.9651 49° Northeast  Level FlightAware Approximate
11:07PM 31.8218 -86.8578 49° Northeast  Level FlightAware Approximate
11:08PM 31.9007 -86.7504 49° Northeast  Level FlightAware Approximate
11:09PM 31.9794 -86.6427 49° Northeast  Level FlightAware Approximate
11:10PM 32.0581 -86.5349 49° Northeast  Level FlightAware Approximate
11:11PM 32.1367 -86.4269 49° Northeast  Level FlightAware Approximate
11:12PM 32.2152 -86.3187 49° Northeast  Level FlightAware Approximate
11:13PM 32.2899 -86.2068 52° Northeast  Level FlightAware Approximate
11:14PM 32.3648 -86.0949 52° Northeast  Level FlightAware Approximate
11:15PM 32.4397 -85.9830 52° Northeast  Level FlightAware Approximate
11:16PM 32.5145 -85.8709 52° Northeast  Level FlightAware Approximate
11:17PM 32.5892 -85.7586 52° Northeast  Level FlightAware Approximate
11:18PM 32.6639 -85.6461 52° Northeast  Level FlightAware Approximate
11:19PM 32.7382 -85.5333 52° Northeast  Level FlightAware Approximate
11:20PM 32.8125 -85.4202 52° Northeast  Level FlightAware Approximate
11:21PM 32.8866 -85.3070 52° Northeast  Level FlightAware Approximate
11:22PM 32.9606 -85.1935 52° Northeast  Level FlightAware Approximate
11:23PM 33.0345 -85.0799 52° Northeast  Level FlightAware Approximate
11:24PM 33.1083 -84.9661 52° Northeast  Level FlightAware Approximate
11:25PM 33.1820 -84.8521 52° Northeast  Level FlightAware Approximate
11:26PM 33.2569 -84.7391 52° Northeast  Level FlightAware Approximate
11:27PM 33.3318 -84.6260 52° Northeast  Level FlightAware Approximate
11:28PM 33.4065 -84.5127 52° Northeast  Level FlightAware Approximate
11:29PM 33.4812 -84.3991 52° Northeast  Level FlightAware Approximate
11:30PM 33.5557 -84.2854 52° Northeast  Level FlightAware Approximate
11:31PM 33.6302 -84.1715 52° Northeast  Level FlightAware Approximate
11:32PM 33.7028 -84.0559 53° Northeast  Level FlightAware Approximate
11:33PM 33.7753 -83.9400 53° Northeast  Level FlightAware Approximate
11:34PM 33.8477 -83.8239 53° Northeast  Level FlightAware Approximate
11:35PM 33.9208 -83.7083 52° Northeast  Level FlightAware Approximate
11:36PM 33.9945 -83.5932 52° Northeast  Level FlightAware Approximate
11:37PM 34.0681 -83.4779 52° Northeast  Level FlightAware Approximate
11:38PM 34.1415 -83.3624 52° Northeast  Level FlightAware Approximate
11:39PM 34.2149 -83.2467 52° Northeast  Level FlightAware Approximate
11:40PM 34.2882 -83.1308 53° Northeast  Level FlightAware Approximate
11:41PM 34.3613 -83.0147 53° Northeast  Level FlightAware Approximate
11:42PM 34.4343 -82.8984 53° Northeast  Level FlightAware Approximate
11:43PM 34.5066 -82.7813 53° Northeast  Level FlightAware Approximate
11:44PM 34.5788 -82.6640 53° Northeast  Level FlightAware Approximate
11:45PM 34.6509 -82.5466 53° Northeast  Level FlightAware Approximate
11:46PM 34.7229 -82.4289 53° Northeast  Level FlightAware Approximate
11:47PM 34.7947 -82.3110 53° Northeast  Level FlightAware Approximate
11:48PM 34.8665 -82.1929 53° Northeast  Level FlightAware Approximate
11:49PM 34.9381 -82.0746 54° Northeast  Level FlightAware Approximate
11:50PM 35.0096 -81.9561 54° Northeast  Level FlightAware Approximate
11:51PM 35.0756 -81.8329 58° Northeast  Level FlightAware Approximate
11:52PM 35.1386 -81.7072 58° Northeast  Level FlightAware Approximate
11:53PM 35.2016 -81.5814 58° Northeast  Level FlightAware Approximate
11:54PM 35.2644 -81.4554 59° Northeast  Level FlightAware Approximate
11:55PM 35.3271 -81.3291 59° Northeast  Level FlightAware Approximate
11:56PM 35.3931 -81.2053 57° Northeast  Level FlightAware Approximate
11:57PM 35.4593 -81.0816 57° Northeast  Level FlightAware Approximate
11:58PM 35.5253 -80.9577 57° Northeast  Level FlightAware Approximate
11:59PM 35.5912 -80.8335 57° Northeast  Level FlightAware Approximate
12:00AM 35.6570 -80.7092 57° Northeast  Level FlightAware Approximate
12:01AM 35.7227 -80.5846 57° Northeast  Level FlightAware Approximate
12:02AM 35.7882 -80.4599 57° Northeast  Level FlightAware Approximate
12:03AM 35.8536 -80.3349 57° Northeast  Level FlightAware Approximate
12:04AM 35.9189 -80.2098 57° Northeast  Level FlightAware Approximate
12:05AM 35.9809 -80.0821 61° Northeast  Level FlightAware Approximate
12:06AM 36.0416 -79.9534 52° Northeast  Level FlightAware Approximate
12:07AM 36.1154 -79.8354 52° Northeast  Level FlightAware Approximate
12:08AM 36.1876 -79.7062 55° Northeast  Level FlightAware Approximate
12:09AM 36.2597 -79.5767 55° Northeast  Level FlightAware Approximate
12:10AM 36.3316 -79.4469 55° Northeast  Level FlightAware Approximate
12:11AM 36.4009 -79.3149 58° Northeast  Level FlightAware Approximate
12:12AM 36.4771 -79.1997 56° Northeast  Level FlightAware Approximate
12:13AM 36.5477 -79.0684 56° Northeast  Level FlightAware Approximate
12:14AM 36.6181 -78.9369 56° Northeast  Level FlightAware Approximate
12:15AM 36.6884 -78.8052 56° Northeast  Level FlightAware Approximate
12:16AM 36.7560 -78.6713 58° Northeast  Level FlightAware Approximate
12:17AM 36.8264 -78.5395 55° Northeast  Level FlightAware Approximate
12:18AM 36.8988 -78.4092 55° Northeast  Level FlightAware Approximate
12:19AM 36.9761 -78.2844 53° Northeast  Level FlightAware Approximate
12:20AM 37.0656 -78.1748 34° Northeast  Level FlightAware Approximate
12:21AM 37.1714 -78.0870 32° Northeast  Level FlightAware Approximate
12:22AM 37.2792 -78.0029 32° Northeast  Level FlightAware Approximate
12:23AM 37.3870 -77.9186 32° Northeast  Level FlightAware Approximate
12:24AM 37.4947 -77.8340 32° Northeast  Level FlightAware Approximate
12:25AM 37.6095 -77.7667 23° Northeast  Level FlightAware Approximate
12:26AM 37.7263 -77.7038 23° Northeast  Level FlightAware Approximate
12:27AM 37.8395 -77.6333 North  Level FlightAware Approximate
12:28AM 37.9528 -77.5653 21° North  Level FlightAware Approximate
12:29AM 38.0693 -77.5022 31° Northeast  Level FlightAware Approximate
12:30AM 38.1836 -77.4332 28° Northeast  Level FlightAware Approximate
12:31AM 38.2976 -77.3667 North  Level FlightAware Approximate
12:32AM 38.4221 -77.3500 North  Level FlightAware Approximate
12:33AM 38.5560 -77.3500 North  Level FlightAware Approximate